sensor_id;sensor_type;location;lat;lon;timestamp;temperature;humidity
25616;DHT22;13482;48.234;13.006;2023-07-22T00:01:54;20.30;70.00
25616;DHT22;13482;48.234;13.006;2023-07-22T00:04:22;20.30;70.00
25616;DHT22;13482;48.234;13.006;2023-07-22T00:06:49;20.20;70.10
25616;DHT22;13482;48.234;13.006;2023-07-22T00:09:16;20.20;70.10
25616;DHT22;13482;48.234;13.006;2023-07-22T00:11:44;20.20;70.10
25616;DHT22;13482;48.234;13.006;2023-07-22T00:14:12;20.20;70.10
25616;DHT22;13482;48.234;13.006;2023-07-22T00:16:39;20.20;70.00
25616;DHT22;13482;48.234;13.006;2023-07-22T00:19:06;20.20;70.00
25616;DHT22;13482;48.234;13.006;2023-07-22T00:21:34;20.20;70.00
25616;DHT22;13482;48.234;13.006;2023-07-22T00:24:01;20.20;69.90
25616;DHT22;13482;48.234;13.006;2023-07-22T00:26:29;20.10;70.00
25616;DHT22;13482;48.234;13.006;2023-07-22T00:28:56;20.10;69.90
25616;DHT22;13482;48.234;13.006;2023-07-22T00:31:23;20.10;69.90
25616;DHT22;13482;48.234;13.006;2023-07-22T00:33:51;20.10;69.90
25616;DHT22;13482;48.234;13.006;2023-07-22T00:36:18;20.00;70.00
25616;DHT22;13482;48.234;13.006;2023-07-22T00:38:46;20.00;70.10
25616;DHT22;13482;48.234;13.006;2023-07-22T00:41:13;20.00;70.10
25616;DHT22;13482;48.234;13.006;2023-07-22T00:43:41;19.90;70.20
25616;DHT22;13482;48.234;13.006;2023-07-22T00:46:08;19.90;70.20
25616;DHT22;13482;48.234;13.006;2023-07-22T00:48:37;19.90;70.20
25616;DHT22;13482;48.234;13.006;2023-07-22T00:51:05;19.90;70.20
25616;DHT22;13482;48.234;13.006;2023-07-22T00:53:33;19.80;70.20
25616;DHT22;13482;48.234;13.006;2023-07-22T00:56:00;19.80;70.30
25616;DHT22;13482;48.234;13.006;2023-07-22T00:58:28;19.80;70.30
25616;DHT22;13482;48.234;13.006;2023-07-22T01:00:55;19.70;70.40
25616;DHT22;13482;48.234;13.006;2023-07-22T01:03:23;19.70;70.40
25616;DHT22;13482;48.234;13.006;2023-07-22T01:05:53;19.70;70.40
25616;DHT22;13482;48.234;13.006;2023-07-22T01:08:21;19.70;70.50
25616;DHT22;13482;48.234;13.006;2023-07-22T01:10:49;19.60;70.60
25616;DHT22;13482;48.234;13.006;2023-07-22T01:13:16;19.60;70.60
25616;DHT22;13482;48.234;13.006;2023-07-22T01:15:44;19.50;70.60
25616;DHT22;13482;48.234;13.006;2023-07-22T01:18:11;19.50;70.60
25616;DHT22;13482;48.234;13.006;2023-07-22T01:20:39;19.50;70.70
25616;DHT22;13482;48.234;13.006;2023-07-22T01:23:07;19.50;70.70
25616;DHT22;13482;48.234;13.006;2023-07-22T01:25:34;19.40;70.60
25616;DHT22;13482;48.234;13.006;2023-07-22T01:28:02;19.40;70.50
25616;DHT22;13482;48.234;13.006;2023-07-22T01:30:29;19.40;70.40
25616;DHT22;13482;48.234;13.006;2023-07-22T01:32:57;19.30;70.40
25616;DHT22;13482;48.234;13.006;2023-07-22T01:35:24;19.30;70.20
25616;DHT22;13482;48.234;13.006;2023-07-22T01:37:53;19.30;70.20
25616;DHT22;13482;48.234;13.006;2023-07-22T01:40:20;19.30;70.20
25616;DHT22;13482;48.234;13.006;2023-07-22T01:42:50;19.20;70.30
25616;DHT22;13482;48.234;13.006;2023-07-22T01:45:17;19.20;70.30
25616;DHT22;13482;48.234;13.006;2023-07-22T01:47:45;19.20;70.40
25616;DHT22;13482;48.234;13.006;2023-07-22T01:50:12;19.10;70.40
25616;DHT22;13482;48.234;13.006;2023-07-22T01:52:40;19.10;70.50
25616;DHT22;13482;48.234;13.006;2023-07-22T01:55:08;19.10;70.50
25616;DHT22;13482;48.234;13.006;2023-07-22T01:57:38;19.00;70.60
25616;DHT22;13482;48.234;13.006;2023-07-22T02:00:07;19.00;70.50
25616;DHT22;13482;48.234;13.006;2023-07-22T02:02:38;18.90;70.60
25616;DHT22;13482;48.234;13.006;2023-07-22T02:05:06;18.90;70.60
25616;DHT22;13482;48.234;13.006;2023-07-22T02:07:34;18.90;70.70
25616;DHT22;13482;48.234;13.006;2023-07-22T02:10:03;18.80;70.80
25616;DHT22;13482;48.234;13.006;2023-07-22T02:12:32;18.70;70.90
25616;DHT22;13482;48.234;13.006;2023-07-22T02:14:59;18.70;70.90
25616;DHT22;13482;48.234;13.006;2023-07-22T02:17:27;18.70;70.90
25616;DHT22;13482;48.234;13.006;2023-07-22T02:19:54;18.60;70.80
25616;DHT22;13482;48.234;13.006;2023-07-22T02:22:22;18.60;70.70
25616;DHT22;13482;48.234;13.006;2023-07-22T02:24:49;18.60;70.50
25616;DHT22;13482;48.234;13.006;2023-07-22T02:27:17;18.50;70.60
25616;DHT22;13482;48.234;13.006;2023-07-22T02:29:44;18.50;70.40
25616;DHT22;13482;48.234;13.006;2023-07-22T02:32:12;18.50;70.30
25616;DHT22;13482;48.234;13.006;2023-07-22T02:34:39;18.40;70.20
25616;DHT22;13482;48.234;13.006;2023-07-22T02:37:06;18.30;70.30
25616;DHT22;13482;48.234;13.006;2023-07-22T02:39:34;18.30;70.30
25616;DHT22;13482;48.234;13.006;2023-07-22T02:42:01;18.30;70.30
25616;DHT22;13482;48.234;13.006;2023-07-22T02:44:28;18.20;70.30
25616;DHT22;13482;48.234;13.006;2023-07-22T02:46:56;18.10;70.40
25616;DHT22;13482;48.234;13.006;2023-07-22T02:49:23;18.10;70.50
25616;DHT22;13482;48.234;13.006;2023-07-22T02:51:51;18.10;70.60
25616;DHT22;13482;48.234;13.006;2023-07-22T02:54:18;18.00;70.80
25616;DHT22;13482;48.234;13.006;2023-07-22T02:56:46;18.00;71.00
25616;DHT22;13482;48.234;13.006;2023-07-22T02:59:13;18.00;71.20
25616;DHT22;13482;48.234;13.006;2023-07-22T03:01:41;18.00;71.20
25616;DHT22;13482;48.234;13.006;2023-07-22T03:04:08;17.90;71.20
25616;DHT22;13482;48.234;13.006;2023-07-22T03:06:36;17.90;71.00
25616;DHT22;13482;48.234;13.006;2023-07-22T03:09:03;17.90;70.90
25616;DHT22;13482;48.234;13.006;2023-07-22T03:11:32;17.80;70.70
25616;DHT22;13482;48.234;13.006;2023-07-22T03:13:59;17.80;70.60
25616;DHT22;13482;48.234;13.006;2023-07-22T03:16:26;17.80;70.40
25616;DHT22;13482;48.234;13.006;2023-07-22T03:18:54;17.70;70.40
25616;DHT22;13482;48.234;13.006;2023-07-22T03:21:22;17.70;70.40
25616;DHT22;13482;48.234;13.006;2023-07-22T03:23:50;17.60;70.40
25616;DHT22;13482;48.234;13.006;2023-07-22T03:26:17;17.60;70.40
25616;DHT22;13482;48.234;13.006;2023-07-22T03:28:45;17.50;70.50
25616;DHT22;13482;48.234;13.006;2023-07-22T03:31:12;17.50;70.70
25616;DHT22;13482;48.234;13.006;2023-07-22T03:33:40;17.40;70.90
25616;DHT22;13482;48.234;13.006;2023-07-22T03:36:08;17.40;71.00
25616;DHT22;13482;48.234;13.006;2023-07-22T03:38:35;17.40;71.30
25616;DHT22;13482;48.234;13.006;2023-07-22T03:41:03;17.30;71.50
25616;DHT22;13482;48.234;13.006;2023-07-22T03:43:30;17.30;71.50
25616;DHT22;13482;48.234;13.006;2023-07-22T03:45:57;17.30;71.40
25616;DHT22;13482;48.234;13.006;2023-07-22T03:48:25;17.20;71.40
25616;DHT22;13482;48.234;13.006;2023-07-22T03:50:52;17.20;71.40
25616;DHT22;13482;48.234;13.006;2023-07-22T03:53:31;17.20;71.50
25616;DHT22;13482;48.234;13.006;2023-07-22T03:55:58;17.20;71.50
25616;DHT22;13482;48.234;13.006;2023-07-22T03:58:25;17.20;71.50
25616;DHT22;13482;48.234;13.006;2023-07-22T04:00:53;17.20;71.50
25616;DHT22;13482;48.234;13.006;2023-07-22T04:03:20;17.20;71.50
25616;DHT22;13482;48.234;13.006;2023-07-22T04:05:55;17.20;71.30
25616;DHT22;13482;48.234;13.006;2023-07-22T04:08:23;17.20;71.60
25616;DHT22;13482;48.234;13.006;2023-07-22T04:10:52;17.20;71.40
25616;DHT22;13482;48.234;13.006;2023-07-22T04:13:23;17.20;71.40
25616;DHT22;13482;48.234;13.006;2023-07-22T04:15:52;17.20;71.90
25616;DHT22;13482;48.234;13.006;2023-07-22T04:18:20;17.20;71.30
25616;DHT22;13482;48.234;13.006;2023-07-22T04:20:48;17.20;71.50
25616;DHT22;13482;48.234;13.006;2023-07-22T04:23:16;17.20;71.70
25616;DHT22;13482;48.234;13.006;2023-07-22T04:25:44;17.30;71.70
25616;DHT22;13482;48.234;13.006;2023-07-22T04:28:12;17.30;71.90
25616;DHT22;13482;48.234;13.006;2023-07-22T04:30:39;17.40;71.90
25616;DHT22;13482;48.234;13.006;2023-07-22T04:33:07;17.40;72.20
25616;DHT22;13482;48.234;13.006;2023-07-22T04:35:38;17.40;72.30
25616;DHT22;13482;48.234;13.006;2023-07-22T04:38:08;17.50;72.40
25616;DHT22;13482;48.234;13.006;2023-07-22T04:40:35;17.60;72.60
25616;DHT22;13482;48.234;13.006;2023-07-22T04:43:03;17.60;72.70
25616;DHT22;13482;48.234;13.006;2023-07-22T04:45:30;17.70;72.70
25616;DHT22;13482;48.234;13.006;2023-07-22T04:47:57;17.80;72.80
25616;DHT22;13482;48.234;13.006;2023-07-22T04:50:25;17.90;72.90
25616;DHT22;13482;48.234;13.006;2023-07-22T04:52:53;18.00;73.10
25616;DHT22;13482;48.234;13.006;2023-07-22T04:55:22;18.10;73.00
25616;DHT22;13482;48.234;13.006;2023-07-22T04:57:49;18.20;73.10
25616;DHT22;13482;48.234;13.006;2023-07-22T05:00:18;18.40;73.10
25616;DHT22;13482;48.234;13.006;2023-07-22T05:02:46;18.50;73.10
25616;DHT22;13482;48.234;13.006;2023-07-22T05:05:18;18.60;73.00
25616;DHT22;13482;48.234;13.006;2023-07-22T05:07:45;18.70;73.20
25616;DHT22;13482;48.234;13.006;2023-07-22T05:10:15;18.80;73.00
25616;DHT22;13482;48.234;13.006;2023-07-22T05:12:43;18.90;73.20
25616;DHT22;13482;48.234;13.006;2023-07-22T05:15:11;19.00;73.30
25616;DHT22;13482;48.234;13.006;2023-07-22T05:17:40;19.20;73.30
25616;DHT22;13482;48.234;13.006;2023-07-22T05:20:08;19.30;73.40
25616;DHT22;13482;48.234;13.006;2023-07-22T05:22:40;19.40;73.20
25616;DHT22;13482;48.234;13.006;2023-07-22T05:25:08;19.60;73.00
25616;DHT22;13482;48.234;13.006;2023-07-22T05:27:40;19.70;72.80
25616;DHT22;13482;48.234;13.006;2023-07-22T05:30:08;19.90;72.80
25616;DHT22;13482;48.234;13.006;2023-07-22T05:32:52;20.00;72.60
25616;DHT22;13482;48.234;13.006;2023-07-22T05:35:20;20.20;72.50
25616;DHT22;13482;48.234;13.006;2023-07-22T05:37:48;20.40;72.30
25616;DHT22;13482;48.234;13.006;2023-07-22T05:40:16;20.50;72.30
25616;DHT22;13482;48.234;13.006;2023-07-22T05:42:43;20.60;72.30
25616;DHT22;13482;48.234;13.006;2023-07-22T05:45:10;20.70;72.00
25616;DHT22;13482;48.234;13.006;2023-07-22T05:47:42;20.90;71.70
25616;DHT22;13482;48.234;13.006;2023-07-22T05:50:09;21.00;71.40
25616;DHT22;13482;48.234;13.006;2023-07-22T05:52:37;21.00;71.20
25616;DHT22;13482;48.234;13.006;2023-07-22T05:55:05;21.10;71.30
25616;DHT22;13482;48.234;13.006;2023-07-22T05:57:33;21.20;71.30
25616;DHT22;13482;48.234;13.006;2023-07-22T06:00:02;21.30;71.10
25616;DHT22;13482;48.234;13.006;2023-07-22T06:02:35;21.40;70.80
25616;DHT22;13482;48.234;13.006;2023-07-22T06:05:02;21.50;70.60
25616;DHT22;13482;48.234;13.006;2023-07-22T06:07:31;21.60;70.30
25616;DHT22;13482;48.234;13.006;2023-07-22T06:09:58;21.70;70.30
25616;DHT22;13482;48.234;13.006;2023-07-22T06:12:26;21.80;70.30
25616;DHT22;13482;48.234;13.006;2023-07-22T06:14:53;21.90;70.10
25616;DHT22;13482;48.234;13.006;2023-07-22T06:17:20;22.00;70.10
25616;DHT22;13482;48.234;13.006;2023-07-22T06:19:48;22.10;69.90
25616;DHT22;13482;48.234;13.006;2023-07-22T06:22:15;22.20;69.70
25616;DHT22;13482;48.234;13.006;2023-07-22T06:24:43;22.30;69.60
25616;DHT22;13482;48.234;13.006;2023-07-22T06:27:10;22.40;69.30
25616;DHT22;13482;48.234;13.006;2023-07-22T06:29:38;22.50;69.00
25616;DHT22;13482;48.234;13.006;2023-07-22T06:32:06;22.60;68.80
25616;DHT22;13482;48.234;13.006;2023-07-22T06:34:34;22.70;68.20
25616;DHT22;13482;48.234;13.006;2023-07-22T06:37:01;22.70;68.10
25616;DHT22;13482;48.234;13.006;2023-07-22T06:39:30;22.80;67.80
25616;DHT22;13482;48.234;13.006;2023-07-22T06:41:57;22.80;67.70
25616;DHT22;13482;48.234;13.006;2023-07-22T06:44:24;22.80;67.50
25616;DHT22;13482;48.234;13.006;2023-07-22T06:46:52;22.80;67.50
25616;DHT22;13482;48.234;13.006;2023-07-22T06:49:19;22.80;67.70
25616;DHT22;13482;48.234;13.006;2023-07-22T06:51:47;22.90;68.00
25616;DHT22;13482;48.234;13.006;2023-07-22T06:54:14;22.90;68.30
25616;DHT22;13482;48.234;13.006;2023-07-22T06:56:42;23.00;68.40
25616;DHT22;13482;48.234;13.006;2023-07-22T06:59:09;23.10;68.10
25616;DHT22;13482;48.234;13.006;2023-07-22T07:01:37;23.30;67.90
25616;DHT22;13482;48.234;13.006;2023-07-22T07:04:05;23.40;67.70
25616;DHT22;13482;48.234;13.006;2023-07-22T07:06:32;23.50;67.70
25616;DHT22;13482;48.234;13.006;2023-07-22T07:09:00;23.70;67.40
25616;DHT22;13482;48.234;13.006;2023-07-22T07:11:29;23.80;67.30
25616;DHT22;13482;48.234;13.006;2023-07-22T07:13:57;23.90;67.10
25616;DHT22;13482;48.234;13.006;2023-07-22T07:16:28;24.10;66.60
25616;DHT22;13482;48.234;13.006;2023-07-22T07:18:56;24.20;66.10
25616;DHT22;13482;48.234;13.006;2023-07-22T07:21:25;24.30;65.70
25616;DHT22;13482;48.234;13.006;2023-07-22T07:23:54;24.40;65.80
25616;DHT22;13482;48.234;13.006;2023-07-22T07:26:22;24.50;65.20
25616;DHT22;13482;48.234;13.006;2023-07-22T07:28:51;24.60;65.20
25616;DHT22;13482;48.234;13.006;2023-07-22T07:31:19;24.70;65.00
25616;DHT22;13482;48.234;13.006;2023-07-22T07:33:47;24.80;64.80
25616;DHT22;13482;48.234;13.006;2023-07-22T07:36:14;24.90;64.50
25616;DHT22;13482;48.234;13.006;2023-07-22T07:38:42;25.00;64.70
25616;DHT22;13482;48.234;13.006;2023-07-22T07:41:11;25.10;64.90
25616;DHT22;13482;48.234;13.006;2023-07-22T07:43:40;25.20;64.60
25616;DHT22;13482;48.234;13.006;2023-07-22T07:46:22;25.30;64.20
25616;DHT22;13482;48.234;13.006;2023-07-22T07:48:55;25.40;62.30
25616;DHT22;13482;48.234;13.006;2023-07-22T07:51:25;25.50;62.80
25616;DHT22;13482;48.234;13.006;2023-07-22T07:53:54;25.50;63.00
25616;DHT22;13482;48.234;13.006;2023-07-22T07:56:23;25.60;62.90
25616;DHT22;13482;48.234;13.006;2023-07-22T07:58:53;25.60;62.80
25616;DHT22;13482;48.234;13.006;2023-07-22T08:01:21;25.60;62.80
25616;DHT22;13482;48.234;13.006;2023-07-22T08:03:49;25.70;62.50
25616;DHT22;13482;48.234;13.006;2023-07-22T08:06:16;25.70;62.40
25616;DHT22;13482;48.234;13.006;2023-07-22T08:08:46;25.80;62.10
25616;DHT22;13482;48.234;13.006;2023-07-22T08:11:15;25.90;62.00
25616;DHT22;13482;48.234;13.006;2023-07-22T08:13:44;25.90;62.10
25616;DHT22;13482;48.234;13.006;2023-07-22T08:16:13;26.10;62.40
25616;DHT22;13482;48.234;13.006;2023-07-22T08:18:41;26.20;62.30
25616;DHT22;13482;48.234;13.006;2023-07-22T08:21:08;26.30;62.30
25616;DHT22;13482;48.234;13.006;2023-07-22T08:23:37;26.40;61.30
25616;DHT22;13482;48.234;13.006;2023-07-22T08:26:05;26.50;61.20
25616;DHT22;13482;48.234;13.006;2023-07-22T08:28:33;26.60;60.80
25616;DHT22;13482;48.234;13.006;2023-07-22T08:31:01;26.70;60.90
25616;DHT22;13482;48.234;13.006;2023-07-22T08:33:29;26.80;61.00
25616;DHT22;13482;48.234;13.006;2023-07-22T08:36:08;27.00;60.70
25616;DHT22;13482;48.234;13.006;2023-07-22T08:38:36;27.10;60.50
25616;DHT22;13482;48.234;13.006;2023-07-22T08:41:03;27.20;60.40
25616;DHT22;13482;48.234;13.006;2023-07-22T08:43:34;27.30;60.10
25616;DHT22;13482;48.234;13.006;2023-07-22T08:46:07;27.40;58.40
25616;DHT22;13482;48.234;13.006;2023-07-22T08:48:36;27.40;58.60
25616;DHT22;13482;48.234;13.006;2023-07-22T08:51:10;27.40;58.80
25616;DHT22;13482;48.234;13.006;2023-07-22T08:53:46;27.40;58.40
25616;DHT22;13482;48.234;13.006;2023-07-22T08:56:35;27.40;58.70
25616;DHT22;13482;48.234;13.006;2023-07-22T08:59:05;27.50;58.90
25616;DHT22;13482;48.234;13.006;2023-07-22T09:01:37;27.50;58.80
25616;DHT22;13482;48.234;13.006;2023-07-22T09:04:08;27.60;58.80
25616;DHT22;13482;48.234;13.006;2023-07-22T09:06:36;27.70;58.90
25616;DHT22;13482;48.234;13.006;2023-07-22T09:09:06;27.80;58.90
25616;DHT22;13482;48.234;13.006;2023-07-22T09:11:38;27.90;58.40
25616;DHT22;13482;48.234;13.006;2023-07-22T09:14:08;28.00;58.30
25616;DHT22;13482;48.234;13.006;2023-07-22T09:16:45;28.10;58.20
25616;DHT22;13482;48.234;13.006;2023-07-22T09:19:15;28.20;57.80
25616;DHT22;13482;48.234;13.006;2023-07-22T09:21:44;28.20;57.70
25616;DHT22;13482;48.234;13.006;2023-07-22T09:24:26;28.30;57.80
25616;DHT22;13482;48.234;13.006;2023-07-22T09:26:59;28.40;56.50
25616;DHT22;13482;48.234;13.006;2023-07-22T09:29:34;28.50;57.60
25616;DHT22;13482;48.234;13.006;2023-07-22T09:32:05;28.50;57.40
25616;DHT22;13482;48.234;13.006;2023-07-22T09:34:34;28.60;57.40
25616;DHT22;13482;48.234;13.006;2023-07-22T09:37:09;28.70;57.20
25616;DHT22;13482;48.234;13.006;2023-07-22T09:39:37;28.80;57.10
25616;DHT22;13482;48.234;13.006;2023-07-22T09:42:07;28.90;56.60
25616;DHT22;13482;48.234;13.006;2023-07-22T09:44:44;29.00;56.40
25616;DHT22;13482;48.234;13.006;2023-07-22T09:47:18;29.00;55.20
25616;DHT22;13482;48.234;13.006;2023-07-22T09:50:03;29.00;55.80
25616;DHT22;13482;48.234;13.006;2023-07-22T09:52:53;29.10;56.20
25616;DHT22;13482;48.234;13.006;2023-07-22T10:01:53;29.20;55.60
25616;DHT22;13482;48.234;13.006;2023-07-22T10:05:19;29.20;55.90
25616;DHT22;13482;48.234;13.006;2023-07-22T10:07:58;29.30;55.90
25616;DHT22;13482;48.234;13.006;2023-07-22T10:10:39;29.40;56.30
25616;DHT22;13482;48.234;13.006;2023-07-22T10:13:24;29.50;54.30
25616;DHT22;13482;48.234;13.006;2023-07-22T10:15:57;29.50;55.00
25616;DHT22;13482;48.234;13.006;2023-07-22T10:18:30;29.60;53.70
25616;DHT22;13482;48.234;13.006;2023-07-22T10:21:06;29.50;53.70
25616;DHT22;13482;48.234;13.006;2023-07-22T10:23:38;29.50;54.00
25616;DHT22;13482;48.234;13.006;2023-07-22T10:26:18;29.40;53.90
25616;DHT22;13482;48.234;13.006;2023-07-22T10:29:09;29.40;53.30
25616;DHT22;13482;48.234;13.006;2023-07-22T10:31:47;29.30;53.60
25616;DHT22;13482;48.234;13.006;2023-07-22T10:34:27;29.30;53.30
25616;DHT22;13482;48.234;13.006;2023-07-22T10:37:16;29.30;53.00
25616;DHT22;13482;48.234;13.006;2023-07-22T10:39:59;29.30;53.50
25616;DHT22;13482;48.234;13.006;2023-07-22T10:43:03;29.40;52.20
25616;DHT22;13482;48.234;13.006;2023-07-22T10:45:54;29.40;52.10
25616;DHT22;13482;48.234;13.006;2023-07-22T10:48:43;29.40;52.90
25616;DHT22;13482;48.234;13.006;2023-07-22T10:51:37;29.30;52.50
25616;DHT22;13482;48.234;13.006;2023-07-22T10:54:36;29.30;52.30
25616;DHT22;13482;48.234;13.006;2023-07-22T10:57:30;29.20;52.90
25616;DHT22;13482;48.234;13.006;2023-07-22T11:00:18;29.20;51.90
25616;DHT22;13482;48.234;13.006;2023-07-22T11:03:20;29.20;52.40
25616;DHT22;13482;48.234;13.006;2023-07-22T11:06:08;29.10;51.90
25616;DHT22;13482;48.234;13.006;2023-07-22T11:08:48;29.20;53.30
25616;DHT22;13482;48.234;13.006;2023-07-22T11:11:37;29.30;52.50
25616;DHT22;13482;48.234;13.006;2023-07-22T11:14:18;29.30;52.80
25616;DHT22;13482;48.234;13.006;2023-07-22T11:17:09;29.40;53.50
25616;DHT22;13482;48.234;13.006;2023-07-22T11:19:44;29.50;53.10
25616;DHT22;13482;48.234;13.006;2023-07-22T11:22:20;29.60;52.50
25616;DHT22;13482;48.234;13.006;2023-07-22T11:24:53;29.70;52.40
25616;DHT22;13482;48.234;13.006;2023-07-22T11:27:29;29.70;52.80
25616;DHT22;13482;48.234;13.006;2023-07-22T11:30:19;29.80;52.30
25616;DHT22;13482;48.234;13.006;2023-07-22T11:32:51;29.90;52.50
25616;DHT22;13482;48.234;13.006;2023-07-22T11:35:20;29.90;52.50
25616;DHT22;13482;48.234;13.006;2023-07-22T11:38:05;30.00;52.40
25616;DHT22;13482;48.234;13.006;2023-07-22T11:40:39;30.10;52.00
25616;DHT22;13482;48.234;13.006;2023-07-22T11:43:10;30.20;52.80
25616;DHT22;13482;48.234;13.006;2023-07-22T11:45:39;30.30;52.40
25616;DHT22;13482;48.234;13.006;2023-07-22T11:48:16;30.40;52.30
25616;DHT22;13482;48.234;13.006;2023-07-22T11:50:48;30.60;52.20
25616;DHT22;13482;48.234;13.006;2023-07-22T11:53:18;30.70;52.60
25616;DHT22;13482;48.234;13.006;2023-07-22T11:55:51;30.80;52.20
25616;DHT22;13482;48.234;13.006;2023-07-22T11:58:38;30.90;51.50
25616;DHT22;13482;48.234;13.006;2023-07-22T12:01:12;31.00;51.80
25616;DHT22;13482;48.234;13.006;2023-07-22T12:03:47;31.10;51.30
25616;DHT22;13482;48.234;13.006;2023-07-22T12:06:25;31.10;51.30
25616;DHT22;13482;48.234;13.006;2023-07-22T12:09:02;31.20;50.90
25616;DHT22;13482;48.234;13.006;2023-07-22T12:11:40;31.20;51.30
25616;DHT22;13482;48.234;13.006;2023-07-22T12:14:12;31.30;51.00
25616;DHT22;13482;48.234;13.006;2023-07-22T12:16:55;31.30;50.70
25616;DHT22;13482;48.234;13.006;2023-07-22T12:19:31;31.40;50.30
25616;DHT22;13482;48.234;13.006;2023-07-22T12:22:17;31.50;50.50
25616;DHT22;13482;48.234;13.006;2023-07-22T12:24:54;31.50;50.40
25616;DHT22;13482;48.234;13.006;2023-07-22T12:27:24;31.50;50.00
25616;DHT22;13482;48.234;13.006;2023-07-22T12:30:03;31.50;50.50
25616;DHT22;13482;48.234;13.006;2023-07-22T12:32:37;31.60;50.50
25616;DHT22;13482;48.234;13.006;2023-07-22T12:35:09;31.70;49.70
25616;DHT22;13482;48.234;13.006;2023-07-22T12:37:56;31.70;49.50
25616;DHT22;13482;48.234;13.006;2023-07-22T12:40:38;31.70;49.20
25616;DHT22;13482;48.234;13.006;2023-07-22T12:43:19;31.70;49.80
25616;DHT22;13482;48.234;13.006;2023-07-22T12:46:07;31.70;49.30
25616;DHT22;13482;48.234;13.006;2023-07-22T12:50:29;31.70;49.20
25616;DHT22;13482;48.234;13.006;2023-07-22T12:54:51;31.60;49.10
25616;DHT22;13482;48.234;13.006;2023-07-22T12:58:45;31.60;48.90
25616;DHT22;13482;48.234;13.006;2023-07-22T13:01:46;31.60;49.10
25616;DHT22;13482;48.234;13.006;2023-07-22T13:05:11;31.60;49.30
25616;DHT22;13482;48.234;13.006;2023-07-22T13:08:51;31.60;48.80
25616;DHT22;13482;48.234;13.006;2023-07-22T13:13:32;31.50;48.40
25616;DHT22;13482;48.234;13.006;2023-07-22T13:17:40;31.50;48.60
25616;DHT22;13482;48.234;13.006;2023-07-22T13:26:06;31.40;47.80
25616;DHT22;13482;48.234;13.006;2023-07-22T13:30:10;31.40;47.80
25616;DHT22;13482;48.234;13.006;2023-07-22T13:49:09;31.30;47.60
25616;DHT22;13482;48.234;13.006;2023-07-22T13:53:29;31.40;47.50
25616;DHT22;13482;48.234;13.006;2023-07-22T14:01:59;31.60;47.20
25616;DHT22;13482;48.234;13.006;2023-07-22T14:06:12;31.60;47.60
25616;DHT22;13482;48.234;13.006;2023-07-22T14:10:27;31.50;47.50
25616;DHT22;13482;48.234;13.006;2023-07-22T14:14:45;31.50;47.30
25616;DHT22;13482;48.234;13.006;2023-07-22T14:22:57;31.60;47.40
25616;DHT22;13482;48.234;13.006;2023-07-22T14:32:00;31.70;47.40
25616;DHT22;13482;48.234;13.006;2023-07-22T14:36:27;31.70;47.40
25616;DHT22;13482;48.234;13.006;2023-07-22T14:39:53;31.80;47.50
25616;DHT22;13482;48.234;13.006;2023-07-22T14:43:37;31.90;47.30
25616;DHT22;13482;48.234;13.006;2023-07-22T14:47:20;32.00;46.80
25616;DHT22;13482;48.234;13.006;2023-07-22T14:50:41;32.00;46.90
25616;DHT22;13482;48.234;13.006;2023-07-22T14:53:51;32.10;47.20
25616;DHT22;13482;48.234;13.006;2023-07-22T14:57:41;32.20;46.90
25616;DHT22;13482;48.234;13.006;2023-07-22T15:01:59;32.30;46.20
25616;DHT22;13482;48.234;13.006;2023-07-22T15:10:00;32.70;45.20
25616;DHT22;13482;48.234;13.006;2023-07-22T15:13:44;32.80;45.60
25616;DHT22;13482;48.234;13.006;2023-07-22T15:17:10;32.90;45.80
25616;DHT22;13482;48.234;13.006;2023-07-22T15:41:28;32.90;44.90
25616;DHT22;13482;48.234;13.006;2023-07-22T15:45:43;32.90;44.80
25616;DHT22;13482;48.234;13.006;2023-07-22T15:49:34;33.10;45.50
25616;DHT22;13482;48.234;13.006;2023-07-22T16:01:38;33.70;44.10
25616;DHT22;13482;48.234;13.006;2023-07-22T16:15:03;33.50;43.70
25616;DHT22;13482;48.234;13.006;2023-07-22T16:18:47;33.50;44.40
25616;DHT22;13482;48.234;13.006;2023-07-22T16:23:11;33.70;44.90
25616;DHT22;13482;48.234;13.006;2023-07-22T16:26:30;34.00;44.30
25616;DHT22;13482;48.234;13.006;2023-07-22T16:30:54;34.30;44.20
25616;DHT22;13482;48.234;13.006;2023-07-22T16:34:55;34.60;44.70
25616;DHT22;13482;48.234;13.006;2023-07-22T16:38:47;35.00;44.00
25616;DHT22;13482;48.234;13.006;2023-07-22T16:42:35;35.10;43.20
25616;DHT22;13482;48.234;13.006;2023-07-22T16:46:41;35.10;43.40
25616;DHT22;13482;48.234;13.006;2023-07-22T16:50:20;35.10;43.40
25616;DHT22;13482;48.234;13.006;2023-07-22T16:54:07;35.10;43.30
25616;DHT22;13482;48.234;13.006;2023-07-22T16:57:57;35.30;44.30
25616;DHT22;13482;48.234;13.006;2023-07-22T17:01:24;35.50;43.70
25616;DHT22;13482;48.234;13.006;2023-07-22T17:05:43;35.70;44.00
25616;DHT22;13482;48.234;13.006;2023-07-22T17:09:10;36.00;43.30
25616;DHT22;13482;48.234;13.006;2023-07-22T17:13:11;36.20;43.20
25616;DHT22;13482;48.234;13.006;2023-07-22T17:26:06;36.80;43.20
25616;DHT22;13482;48.234;13.006;2023-07-22T17:30:47;37.10;42.90
25616;DHT22;13482;48.234;13.006;2023-07-22T17:40:53;37.70;42.40
25616;DHT22;13482;48.234;13.006;2023-07-22T17:44:52;37.60;42.30
25616;DHT22;13482;48.234;13.006;2023-07-22T17:48:33;37.60;42.80
25616;DHT22;13482;48.234;13.006;2023-07-22T17:57:13;37.10;42.30
25616;DHT22;13482;48.234;13.006;2023-07-22T18:00:41;36.60;42.50
25616;DHT22;13482;48.234;13.006;2023-07-22T18:12:31;35.50;43.10
25616;DHT22;13482;48.234;13.006;2023-07-22T18:16:34;35.10;43.20
25616;DHT22;13482;48.234;13.006;2023-07-22T18:21:07;34.50;43.60
25616;DHT22;13482;48.234;13.006;2023-07-22T18:24:48;34.00;43.70
25616;DHT22;13482;48.234;13.006;2023-07-22T18:31:31;32.90;43.90
25616;DHT22;13482;48.234;13.006;2023-07-22T18:35:36;32.30;44.40
25616;DHT22;13482;48.234;13.006;2023-07-22T18:39:43;31.50;44.80
25616;DHT22;13482;48.234;13.006;2023-07-22T18:43:42;30.90;45.40
25616;DHT22;13482;48.234;13.006;2023-07-22T18:47:30;30.30;45.90
25616;DHT22;13482;48.234;13.006;2023-07-22T18:55:23;29.20;46.60
25616;DHT22;13482;48.234;13.006;2023-07-22T18:59:48;28.70;47.10
25616;DHT22;13482;48.234;13.006;2023-07-22T19:04:16;28.30;47.40
25616;DHT22;13482;48.234;13.006;2023-07-22T19:08:14;27.90;47.90
25616;DHT22;13482;48.234;13.006;2023-07-22T19:36:33;26.30;50.40
25616;DHT22;13482;48.234;13.006;2023-07-22T19:40:18;26.20;50.60
25616;DHT22;13482;48.234;13.006;2023-07-22T19:43:46;26.10;50.90